createdAt,value
2023-05-14T00:03:06.743Z,39.1
2023-05-14T00:08:51.516Z,41.3
2023-05-14T00:14:36.173Z,39.8
2023-05-14T00:20:21.249Z,44.2
2023-05-14T00:26:06.311Z,38.8
2023-05-14T00:31:51.488Z,41.5
2023-05-14T00:37:37.057Z,36.7
2023-05-14T00:43:21.730Z,39.4
2023-05-14T00:49:06.653Z,37.8
2023-05-14T00:54:52.081Z,39.5
2023-05-14T01:00:37.982Z,42
2023-05-14T01:06:30.118Z,41.2
2023-05-14T01:12:20.301Z,39.8
2023-05-14T01:18:08.405Z,45.5
2023-05-14T01:23:53.276Z,41.5
2023-05-14T01:29:40.328Z,45.1
2023-05-14T01:35:25.804Z,40
2023-05-14T01:41:10.714Z,46
2023-05-14T01:46:56.447Z,40.9
2023-05-14T01:52:42.151Z,44.2
2023-05-14T01:58:27.071Z,44.2
2023-05-14T02:04:12.122Z,45
2023-05-14T02:09:56.723Z,44.6
2023-05-14T02:15:41.393Z,48.9
2023-05-14T02:21:26.219Z,45.7
2023-05-14T02:27:10.983Z,49.6
2023-05-14T02:32:56.037Z,47.7
2023-05-14T02:38:40.796Z,48.5
2023-05-14T02:44:25.609Z,46.9
2023-05-14T02:50:11.102Z,47.4
2023-05-14T02:55:55.822Z,48.6
2023-05-14T03:01:42.219Z,51.3
2023-05-14T03:07:28.323Z,50.5
2023-05-14T03:13:13.229Z,49
2023-05-14T03:18:58.470Z,48.8
2023-05-14T03:24:43.668Z,46.3
2023-05-14T03:30:29.211Z,46.1
2023-05-14T03:36:14.065Z,43.9
2023-05-14T03:41:58.725Z,45.8
2023-05-14T03:47:45.257Z,45.8
2023-05-14T03:53:30.040Z,47.6
2023-05-14T03:59:14.759Z,44.5
2023-05-14T04:04:59.892Z,45.8
2023-05-14T04:10:45.863Z,43.7
2023-05-14T04:16:30.917Z,43.9
2023-05-14T04:22:15.777Z,42
2023-05-14T04:28:00.580Z,42.6
2023-05-14T04:33:48.555Z,43
2023-05-14T04:39:33.423Z,40.1
2023-05-14T04:45:19.189Z,38.4
2023-05-14T04:51:07.227Z,39.3
2023-05-14T04:56:52.212Z,37.6
2023-05-14T05:02:37.118Z,37.6
2023-05-14T05:08:21.916Z,38.5
2023-05-14T05:14:06.546Z,36.6
2023-05-14T05:19:51.270Z,35.3
2023-05-14T05:25:35.923Z,37.3
2023-05-14T05:31:23.297Z,36.6
2023-05-14T05:37:08.357Z,34.7
2023-05-14T05:42:53.121Z,35
2023-05-14T05:48:37.752Z,32.2
2023-05-14T05:54:23.487Z,33.2
2023-05-14T06:00:08.932Z,34.1
2023-05-14T06:05:54.278Z,33.2
2023-05-14T06:11:38.804Z,32.5
2023-05-14T06:17:23.626Z,34.4
2023-05-14T06:23:08.387Z,34.7
2023-05-14T06:28:53.035Z,35.8
2023-05-14T06:34:37.891Z,36.3
2023-05-14T06:40:23.074Z,34.9
2023-05-14T06:46:08.125Z,35.4
2023-05-14T06:51:52.801Z,31.2
2023-05-14T06:57:40.638Z,35.1
2023-05-14T07:03:25.488Z,34.6
2023-05-14T07:09:10.341Z,31.4
2023-05-14T07:14:55.846Z,39.1
2023-05-14T07:20:40.444Z,35
2023-05-14T07:26:25.289Z,36.5
2023-05-14T07:32:10.038Z,35.7
2023-05-14T07:37:54.877Z,34.6
2023-05-14T07:43:39.578Z,36.1
2023-05-14T07:49:24.321Z,38.5
2023-05-14T07:55:10.253Z,36.2
2023-05-14T08:00:55.059Z,34.8
2023-05-14T08:06:39.801Z,35.8
2023-05-14T08:12:24.637Z,40.1
2023-05-14T08:18:09.637Z,34.5
2023-05-14T08:23:54.484Z,36.1
2023-05-14T08:29:39.333Z,38.4
2023-05-14T08:35:24.310Z,38
2023-05-14T08:41:09.550Z,36.3
2023-05-14T08:46:54.605Z,34.6
2023-05-14T08:52:39.466Z,40.5
2023-05-14T08:58:24.276Z,39.6
2023-05-14T09:04:09.748Z,41.4
2023-05-14T09:09:54.882Z,46.3
2023-05-14T09:15:40.373Z,46.8
2023-05-14T09:21:25.449Z,52.8
2023-05-14T09:27:10.604Z,50.1
2023-05-14T09:32:57.266Z,50.9
2023-05-14T09:38:41.993Z,49.6
2023-05-14T09:44:26.822Z,48.8
2023-05-14T09:50:12.313Z,50.8
2023-05-14T09:55:57.030Z,50.3
2023-05-14T10:01:42.644Z,46.9
2023-05-14T10:07:32.919Z,42.8
2023-05-14T10:13:18.232Z,41.7
2023-05-14T10:19:05.021Z,39.3
2023-05-14T10:24:50.052Z,39.5
2023-05-14T10:30:35.224Z,38.7
2023-05-14T10:36:20.948Z,36.7
2023-05-14T10:42:05.813Z,32.9
2023-05-14T10:47:50.858Z,33.6
2023-05-14T10:53:42.437Z,30.1
2023-05-14T10:59:28.560Z,33
2023-05-14T11:05:14.376Z,27.7
2023-05-14T11:10:59.347Z,24.9
2023-05-14T11:16:44.105Z,25.1
2023-05-14T11:22:29.038Z,21.5
2023-05-14T11:28:13.866Z,21.5
2023-05-14T11:33:59.362Z,21.5
2023-05-14T11:39:49.008Z,21.1
2023-05-14T11:45:33.782Z,19.9
2023-05-14T11:51:18.556Z,19.2
2023-05-14T11:57:04.087Z,18.3
2023-05-14T12:02:51.667Z,17.4
2023-05-14T12:08:36.594Z,17.3
2023-05-14T12:14:22.845Z,16.2
2023-05-14T12:20:08.529Z,16.8
2023-05-14T12:25:59.514Z,16.6
2023-05-14T12:31:48.768Z,14.1
2023-05-14T12:37:34.669Z,15.8
2023-05-14T12:43:19.314Z,15
2023-05-14T12:49:04.223Z,12.5
2023-05-14T12:54:48.991Z,11.7
2023-05-14T13:00:33.990Z,11.7
2023-05-14T13:06:18.728Z,13.6
2023-05-14T13:12:03.451Z,12.3
2023-05-14T13:17:48.622Z,10.8
2023-05-14T13:23:33.425Z,13.2
2023-05-14T13:29:18.192Z,10.1
2023-05-14T13:35:02.856Z,11.8
2023-05-14T13:40:47.833Z,11.9
2023-05-14T13:46:32.918Z,10.9
2023-05-14T13:52:17.697Z,9.7
2023-05-14T13:58:04.682Z,10.9
2023-05-14T14:03:49.445Z,12.1
2023-05-14T14:09:34.217Z,11.3
2023-05-14T14:15:19.094Z,11
2023-05-14T14:21:03.915Z,12.4
2023-05-14T14:26:48.669Z,11.4
2023-05-14T14:32:33.370Z,11.5
2023-05-14T14:38:18.037Z,13.2
2023-05-14T14:44:02.818Z,12
2023-05-14T14:49:47.455Z,11.2
2023-05-14T14:55:32.609Z,19.2
2023-05-14T15:01:17.442Z,20.6
2023-05-14T15:07:03.237Z,15.5
2023-05-14T15:12:48.033Z,14.8
2023-05-14T15:18:33.027Z,15.7
2023-05-14T15:24:18.322Z,18.1
2023-05-14T15:30:03.967Z,17.3
2023-05-14T15:35:48.776Z,16.8
2023-05-14T15:41:33.613Z,15.3
2023-05-14T15:47:18.168Z,15.5
2023-05-14T15:53:03.704Z,16.2
2023-05-14T15:58:48.527Z,14
2023-05-14T16:04:33.289Z,14.5
2023-05-14T16:10:18.138Z,14.5
2023-05-14T16:16:03.129Z,14.2
2023-05-14T16:21:48.175Z,15
2023-05-14T16:27:33.122Z,11.9
2023-05-14T16:33:18.018Z,14.4
2023-05-14T16:39:10.638Z,12.3
2023-05-14T16:44:55.654Z,13.7
2023-05-14T16:50:40.212Z,12.1
2023-05-14T16:56:28.494Z,14.1
2023-05-14T17:02:13.017Z,13.7
2023-05-14T17:07:57.853Z,12.1
2023-05-14T17:13:42.539Z,11.7
2023-05-14T17:19:27.377Z,9.6
2023-05-14T17:25:12.765Z,10.4
2023-05-14T17:30:57.769Z,11
2023-05-14T17:36:42.655Z,10.8
2023-05-14T17:42:27.348Z,12.5
2023-05-14T17:48:12.461Z,11.6
2023-05-14T17:53:57.360Z,11.9
2023-05-14T17:59:42.086Z,13.2
2023-05-14T18:05:29.391Z,10.4
2023-05-14T18:11:14.090Z,11.8
2023-05-14T18:16:59.279Z,9.2
2023-05-14T18:22:44.081Z,10.1
2023-05-14T18:28:28.765Z,8.8
2023-05-14T18:34:13.466Z,9.5
2023-05-14T18:39:58.427Z,8.8
2023-05-14T18:45:43.371Z,8.6
2023-05-14T18:51:28.356Z,9.2
2023-05-14T18:57:14.153Z,8.1
2023-05-14T19:02:59.303Z,8.1
2023-05-14T19:08:44.204Z,8.2
2023-05-14T19:14:28.814Z,9
2023-05-14T19:20:14.368Z,7.2
2023-05-14T19:25:59.554Z,7.2
2023-05-14T19:31:44.778Z,8
2023-05-14T19:37:32.509Z,8.3
2023-05-14T19:43:17.522Z,8.5
2023-05-14T19:49:02.240Z,8.9
2023-05-14T19:54:47.116Z,8.1
2023-05-14T20:00:32.028Z,11
2023-05-14T20:06:16.916Z,10.1
2023-05-14T20:12:01.624Z,11.7
2023-05-14T20:17:46.527Z,13
2023-05-14T20:23:31.373Z,12.3
2023-05-14T20:29:16.095Z,13.2
2023-05-14T20:35:00.801Z,13.4
2023-05-14T20:40:45.753Z,15.5
2023-05-14T20:46:30.836Z,13.6
2023-05-14T20:52:15.500Z,13.9
2023-05-14T20:57:59.984Z,13.9
2023-05-14T21:03:45.773Z,14.2
2023-05-14T21:09:31.589Z,14.9
2023-05-14T21:15:16.777Z,12.3
2023-05-14T21:21:01.500Z,13.4
2023-05-14T21:26:46.458Z,15.4
2023-05-14T21:32:31.343Z,14.4
2023-05-14T21:38:15.990Z,15
2023-05-14T21:44:00.836Z,16
2023-05-14T21:49:45.664Z,16.3
2023-05-14T21:55:31.513Z,18.2
2023-05-14T22:01:16.280Z,16
2023-05-14T22:07:01.251Z,15.7
2023-05-14T22:12:46.832Z,15.8
2023-05-14T22:18:31.636Z,16.7
2023-05-14T22:24:16.338Z,18
2023-05-14T22:30:01.503Z,18.1
2023-05-14T22:35:46.390Z,19.5
2023-05-14T22:41:30.877Z,17.9
2023-05-14T22:47:15.870Z,18.5
2023-05-14T22:53:00.653Z,20.6
2023-05-14T22:58:45.296Z,19.8
2023-05-14T23:04:30.221Z,20.8
2023-05-14T23:10:15.329Z,19.9
2023-05-14T23:15:59.974Z,19.8
2023-05-14T23:21:45.535Z,18.8
2023-05-14T23:27:30.228Z,19.5
2023-05-14T23:33:15.102Z,20
2023-05-14T23:39:00.016Z,18.8
2023-05-14T23:44:44.820Z,17.3
2023-05-14T23:50:29.497Z,19.3
2023-05-14T23:56:14.842Z,17.7
